createdAt,value
2023-07-26T00:00:16.105Z,9.1
2023-07-26T00:03:16.253Z,9.09
2023-07-26T00:06:16.115Z,9.07
2023-07-26T00:09:16.112Z,9.11
2023-07-26T00:12:16.119Z,9.09
2023-07-26T00:15:16.126Z,9.07
2023-07-26T00:18:16.125Z,9
2023-07-26T00:21:16.129Z,9
2023-07-26T00:24:16.149Z,9
2023-07-26T00:27:16.128Z,9
2023-07-26T00:30:16.240Z,8.99
2023-07-26T00:33:16.133Z,8.95
2023-07-26T00:36:16.142Z,8.95
2023-07-26T00:39:16.143Z,8.95
2023-07-26T00:42:16.133Z,8.94
2023-07-26T00:45:16.136Z,8.95
2023-07-26T00:48:16.141Z,8.99
2023-07-26T00:51:16.138Z,8.98
2023-07-26T00:54:16.141Z,8.98
2023-07-26T00:57:16.160Z,8.98
2023-07-26T01:00:16.168Z,9
2023-07-26T01:03:16.196Z,8.98
2023-07-26T01:06:16.170Z,8.97
2023-07-26T01:09:16.181Z,8.96
2023-07-26T01:12:16.254Z,8.98
2023-07-26T01:15:16.253Z,8.91
2023-07-26T01:18:16.218Z,8.92
2023-07-26T01:21:16.271Z,8.94
2023-07-26T01:24:16.289Z,8.9
2023-07-26T01:27:16.313Z,8.86
2023-07-26T01:30:16.306Z,8.93
2023-07-26T01:33:16.311Z,8.92
2023-07-26T01:36:16.308Z,8.94
2023-07-26T01:39:16.329Z,8.92
2023-07-26T01:42:16.330Z,8.88
2023-07-26T01:45:16.330Z,8.88
2023-07-26T01:48:16.336Z,8.89
2023-07-26T01:51:16.331Z,8.96
2023-07-26T01:54:16.334Z,8.95
2023-07-26T01:57:16.335Z,8.94
2023-07-26T02:00:16.357Z,8.98
2023-07-26T02:03:16.337Z,9.02
2023-07-26T02:06:16.336Z,9
2023-07-26T02:09:16.330Z,9.03
2023-07-26T02:12:16.336Z,9.08
2023-07-26T02:15:16.340Z,9.12
2023-07-26T02:18:16.335Z,9.15
2023-07-26T02:21:16.340Z,9.12
2023-07-26T02:24:16.396Z,9.16
2023-07-26T02:27:16.365Z,9.14
2023-07-26T02:30:16.345Z,9.14
2023-07-26T02:33:16.369Z,9.18
2023-07-26T02:36:16.340Z,9.16
2023-07-26T02:39:16.348Z,9.21
2023-07-26T02:42:16.349Z,9.2
2023-07-26T02:45:16.353Z,9.19
2023-07-26T02:48:16.348Z,9.18
2023-07-26T02:51:16.358Z,9.23
2023-07-26T02:54:16.356Z,9.22
2023-07-26T02:57:16.364Z,9.27
2023-07-26T03:00:16.375Z,9.25
2023-07-26T03:03:16.445Z,9.24
2023-07-26T03:06:16.366Z,9.28
2023-07-26T03:09:16.361Z,9.29
2023-07-26T03:12:16.364Z,9.24
2023-07-26T03:15:16.374Z,9.25
2023-07-26T03:18:16.368Z,9.29
2023-07-26T03:21:16.388Z,9.31
2023-07-26T03:24:16.398Z,9.29
2023-07-26T03:27:16.376Z,9.29
2023-07-26T03:30:16.384Z,9.28
2023-07-26T03:33:16.382Z,9.23
2023-07-26T03:36:16.384Z,9.29
2023-07-26T03:39:16.389Z,9.31
2023-07-26T03:42:16.394Z,9.31
2023-07-26T03:45:16.394Z,9.31
2023-07-26T03:48:16.431Z,9.25
2023-07-26T03:51:16.395Z,9.31
2023-07-26T03:54:16.394Z,9.26
2023-07-26T03:57:16.401Z,9.25
2023-07-26T04:00:16.411Z,9.26
2023-07-26T04:03:16.466Z,9.25
2023-07-26T04:06:16.425Z,9.31
2023-07-26T04:09:16.403Z,9.31
2023-07-26T04:12:16.439Z,9.29
2023-07-26T04:15:16.419Z,9.34
2023-07-26T04:18:16.420Z,9.37
2023-07-26T04:21:16.455Z,9.36
2023-07-26T04:24:16.433Z,9.38
2023-07-26T04:27:16.420Z,9.41
2023-07-26T04:30:16.430Z,9.37
2023-07-26T04:33:16.480Z,9.43
2023-07-26T04:36:16.449Z,9.47
2023-07-26T04:39:16.432Z,9.5
2023-07-26T04:42:16.439Z,9.54
2023-07-26T04:45:16.477Z,9.5
2023-07-26T04:48:16.465Z,9.49
2023-07-26T04:51:16.457Z,9.48
2023-07-26T04:54:16.457Z,9.53
2023-07-26T04:57:16.476Z,9.5
2023-07-26T05:00:16.472Z,9.45
2023-07-26T05:03:16.480Z,9.46
2023-07-26T05:06:16.481Z,9.5
2023-07-26T05:09:16.495Z,9.48
2023-07-26T05:12:16.495Z,9.51
2023-07-26T05:15:16.497Z,9.49
2023-07-26T05:18:16.500Z,9.53
2023-07-26T05:21:16.501Z,9.61
2023-07-26T05:24:16.574Z,9.66
2023-07-26T05:27:16.519Z,9.67
2023-07-26T05:30:16.530Z,9.68
2023-07-26T05:33:16.520Z,9.68
2023-07-26T05:36:16.518Z,9.65
2023-07-26T05:39:16.540Z,9.64
2023-07-26T05:42:16.533Z,9.7
2023-07-26T05:45:16.533Z,9.69
2023-07-26T05:48:16.539Z,9.65
2023-07-26T05:51:16.540Z,9.72
2023-07-26T05:54:16.545Z,9.7
2023-07-26T05:57:16.547Z,9.66
2023-07-26T06:00:16.550Z,9.7
2023-07-26T06:03:16.556Z,9.79
2023-07-26T06:06:16.593Z,9.76
2023-07-26T06:09:16.567Z,9.81
2023-07-26T06:12:16.568Z,9.84
2023-07-26T06:15:16.581Z,9.89
2023-07-26T06:18:16.579Z,9.93
2023-07-26T06:21:16.576Z,9.96
2023-07-26T06:24:16.614Z,9.92
2023-07-26T06:27:16.593Z,10
2023-07-26T06:30:16.623Z,9.99
2023-07-26T06:33:16.587Z,10.04
2023-07-26T06:36:16.604Z,10.04
2023-07-26T06:39:16.607Z,10.02
2023-07-26T06:42:16.618Z,9.94
2023-07-26T06:45:16.604Z,9.95
2023-07-26T06:48:16.610Z,9.93
2023-07-26T06:51:16.618Z,9.94
2023-07-26T06:54:16.624Z,9.94
2023-07-26T06:57:16.624Z,9.96
2023-07-26T07:00:16.637Z,9.93
2023-07-26T07:03:16.633Z,9.96
2023-07-26T07:06:16.651Z,10.08
2023-07-26T07:09:16.730Z,10.09
2023-07-26T07:12:16.739Z,10.22
2023-07-26T07:15:16.749Z,10.19
2023-07-26T07:18:16.811Z,10.24
2023-07-26T07:21:16.782Z,10.36
2023-07-26T07:24:16.764Z,10.35
2023-07-26T07:27:16.749Z,10.27
2023-07-26T07:30:16.745Z,10.42
2023-07-26T07:33:16.748Z,10.53
2023-07-26T07:36:16.782Z,10.56
2023-07-26T07:39:16.755Z,10.53
2023-07-26T07:42:16.756Z,10.57
2023-07-26T07:45:16.771Z,10.45
2023-07-26T07:48:16.783Z,10.46
2023-07-26T07:51:16.764Z,10.4
2023-07-26T07:54:16.760Z,10.53
2023-07-26T07:57:16.749Z,10.58
2023-07-26T08:00:16.763Z,10.42
2023-07-26T08:03:16.785Z,10.45
2023-07-26T08:06:16.758Z,10.4
2023-07-26T08:09:16.751Z,10.65
2023-07-26T08:12:16.761Z,10.56
2023-07-26T08:15:16.761Z,10.4
2023-07-26T08:18:16.782Z,10.45
2023-07-26T08:21:16.762Z,10.14
2023-07-26T08:24:16.803Z,10.24
2023-07-26T08:27:16.815Z,10.19
2023-07-26T08:30:16.777Z,10.38
2023-07-26T08:33:16.773Z,10.48
2023-07-26T08:36:16.773Z,10.57
2023-07-26T08:42:16.777Z,10.27
2023-07-26T08:45:16.781Z,10.46
2023-07-26T08:48:16.822Z,10.28
2023-07-26T08:51:16.795Z,10.17
2023-07-26T08:54:16.784Z,10.22
2023-07-26T08:57:16.783Z,9.82
2023-07-26T09:00:16.785Z,9.9
2023-07-26T09:03:16.859Z,9.97
2023-07-26T09:06:16.790Z,10.02
2023-07-26T09:09:16.797Z,9.99
2023-07-26T09:12:16.791Z,9.8
2023-07-26T09:15:16.794Z,9.82
2023-07-26T09:18:16.794Z,10.1
2023-07-26T09:21:16.791Z,10.5
2023-07-26T09:24:16.805Z,10.27
2023-07-26T09:27:16.799Z,10.14
2023-07-26T09:30:16.812Z,9.98
2023-07-26T09:33:16.803Z,9.97
2023-07-26T09:36:16.812Z,10.52
2023-07-26T09:39:16.808Z,11.03
2023-07-26T09:42:16.814Z,11.09
2023-07-26T09:45:17.858Z,10.6
2023-07-26T09:54:17.438Z,9.97
2023-07-26T09:57:16.982Z,10.07
2023-07-26T10:00:16.836Z,10.35
2023-07-26T10:03:16.873Z,10.6
2023-07-26T10:06:16.831Z,10.94
2023-07-26T10:09:16.834Z,11.36
2023-07-26T10:12:16.863Z,11.51
2023-07-26T10:15:16.847Z,11.94
2023-07-26T10:18:16.849Z,12.12
2023-07-26T10:21:16.850Z,12.49
2023-07-26T10:24:16.923Z,12.05
2023-07-26T10:27:16.877Z,12.01
2023-07-26T10:30:16.870Z,11.99
2023-07-26T10:33:16.897Z,11.49
2023-07-26T10:36:16.889Z,11.32
2023-07-26T10:39:16.877Z,11.51
2023-07-26T10:42:16.882Z,11.27
2023-07-26T10:45:16.910Z,11.2
2023-07-26T10:48:16.883Z,11.29
2023-07-26T10:51:16.909Z,11.67
2023-07-26T10:54:16.925Z,11.43
2023-07-26T10:57:16.924Z,10.51
2023-07-26T11:00:16.904Z,10.28
2023-07-26T11:03:16.936Z,10.45
2023-07-26T11:06:16.909Z,10.54
2023-07-26T11:09:16.917Z,10.49
2023-07-26T11:12:16.923Z,10.42
2023-07-26T11:15:49.420Z,10.11
2023-07-26T11:18:16.932Z,9.95
2023-07-26T11:21:17.421Z,10.13
2023-07-26T11:24:16.977Z,10.42
2023-07-26T11:27:16.956Z,10.41
2023-07-26T11:30:16.962Z,10.38
2023-07-26T11:33:16.967Z,10.29
2023-07-26T11:36:16.971Z,10.4
2023-07-26T11:39:16.993Z,10.61
2023-07-26T11:42:16.984Z,10.66
2023-07-26T11:45:17.002Z,10.8
2023-07-26T11:48:17.043Z,10.88
2023-07-26T11:51:17.019Z,10.84
2023-07-26T11:54:17.027Z,10.21
2023-07-26T11:57:17.024Z,10.26
2023-07-26T12:00:17.027Z,10.36
2023-07-26T12:03:17.085Z,10.64
2023-07-26T12:06:17.046Z,10.7
2023-07-26T12:09:17.052Z,10.69
2023-07-26T12:12:17.128Z,10.62
2023-07-26T12:15:17.069Z,10.54
2023-07-26T12:18:17.077Z,10.4
2023-07-26T12:21:17.192Z,10.31
2023-07-26T12:24:17.141Z,10.24
2023-07-26T12:27:17.092Z,10.35
2023-07-26T12:30:17.112Z,10.32
2023-07-26T12:33:17.113Z,10.33
2023-07-26T12:36:17.130Z,10.39
2023-07-26T12:39:17.123Z,10.49
2023-07-26T12:42:17.143Z,10.89
2023-07-26T12:45:17.148Z,11.02
2023-07-26T12:48:17.160Z,11.07
2023-07-26T12:51:17.156Z,11.22
2023-07-26T12:54:17.232Z,11.53
2023-07-26T12:57:17.262Z,11.56
2023-07-26T13:00:17.190Z,11.57
2023-07-26T13:03:17.245Z,11.54
2023-07-26T13:06:17.195Z,11.46
2023-07-26T13:09:17.197Z,11.42
2023-07-26T13:12:17.201Z,11.09
2023-07-26T13:15:17.212Z,10.87
2023-07-26T13:18:17.209Z,10.99
2023-07-26T13:21:17.225Z,11.08
2023-07-26T13:24:17.256Z,10.67
2023-07-26T13:27:17.236Z,9.93
2023-07-26T13:30:17.242Z,10.31
2023-07-26T13:33:17.269Z,10.48
2023-07-26T13:36:17.248Z,9.99
2023-07-26T13:39:17.258Z,10.28
2023-07-26T13:42:17.253Z,10.12
2023-07-26T13:45:17.262Z,9.8
2023-07-26T13:48:17.319Z,9.88
2023-07-26T13:51:17.272Z,9.86
2023-07-26T13:54:17.278Z,9.84
2023-07-26T13:57:17.290Z,10.06
2023-07-26T14:00:17.286Z,9.99
2023-07-26T14:03:17.294Z,10.12
2023-07-26T14:06:17.296Z,10.09
2023-07-26T14:09:17.301Z,10.03
2023-07-26T14:12:17.302Z,9.93
2023-07-26T14:15:17.309Z,9.86
2023-07-26T14:18:17.331Z,9.92
2023-07-26T14:21:17.309Z,9.8
2023-07-26T14:24:17.312Z,9.88
2023-07-26T14:27:17.311Z,9.9
2023-07-26T14:30:17.305Z,9.59
2023-07-26T14:33:17.309Z,9.75
2023-07-26T14:36:17.318Z,9.71
2023-07-26T14:39:17.309Z,9.86
2023-07-26T14:42:17.316Z,9.94
2023-07-26T14:45:17.325Z,9.74
2023-07-26T14:48:17.313Z,9.57
2023-07-26T14:51:17.330Z,9.53
2023-07-26T14:54:17.332Z,9.5
2023-07-26T14:57:17.348Z,9.41
2023-07-26T15:00:17.365Z,9.56
2023-07-26T15:03:17.486Z,9.67
2023-07-26T15:06:17.381Z,9.4
2023-07-26T15:09:17.404Z,9.29
2023-07-26T15:12:17.406Z,9.83
2023-07-26T15:15:17.412Z,10.75
2023-07-26T15:18:17.424Z,11.06
2023-07-26T15:21:17.432Z,10.94
2023-07-26T15:24:17.480Z,11.02
2023-07-26T15:27:17.452Z,10.91
2023-07-26T15:30:17.456Z,10.95
2023-07-26T15:33:17.533Z,11.3
2023-07-26T15:36:17.563Z,11.47
2023-07-26T15:39:17.499Z,11.74
2023-07-26T15:42:27.672Z,12.03
2023-07-26T15:45:19.969Z,12.03
2023-07-26T15:48:17.551Z,12.06
2023-07-26T15:51:17.537Z,11.98
2023-07-26T15:54:17.550Z,11.9
2023-07-26T15:57:17.599Z,11.71
2023-07-26T16:00:17.557Z,11.82
2023-07-26T16:03:33.509Z,11.74
2023-07-26T16:06:17.595Z,11.71
2023-07-26T16:18:17.613Z,11.51
2023-07-26T16:21:18.288Z,11.56
2023-07-26T16:24:17.608Z,11.46
2023-07-26T16:27:17.603Z,11.27
2023-07-26T16:30:17.614Z,11.36
2023-07-26T16:33:17.687Z,11.26
2023-07-26T16:36:17.632Z,11.4
2023-07-26T16:39:17.650Z,11.55
2023-07-26T16:42:17.644Z,11.51
2023-07-26T16:45:17.650Z,11.31
2023-07-26T16:48:17.668Z,11.32
2023-07-26T16:51:17.667Z,11.46
2023-07-26T16:54:17.674Z,11.35
2023-07-26T16:57:17.677Z,11.19
2023-07-26T17:00:17.680Z,11.32
2023-07-26T17:03:17.825Z,11.23
2023-07-26T17:06:17.681Z,11.15
2023-07-26T17:09:17.747Z,11.17
2023-07-26T17:12:17.686Z,11.23
2023-07-26T17:15:17.700Z,11.28
2023-07-26T17:18:17.707Z,11.33
2023-07-26T17:21:17.714Z,11.33
2023-07-26T17:24:19.903Z,11.2
2023-07-26T17:27:17.702Z,11.09
2023-07-26T17:30:17.705Z,10.94
2023-07-26T17:33:17.712Z,10.9
2023-07-26T17:36:17.720Z,10.91
2023-07-26T17:39:17.721Z,10.96
2023-07-26T17:42:17.721Z,10.73
2023-07-26T17:45:17.732Z,10.57
2023-07-26T17:48:19.917Z,10.49
2023-07-26T17:51:17.744Z,10.66
2023-07-26T17:54:17.748Z,10.69
2023-07-26T17:57:17.758Z,10.68
2023-07-26T18:00:17.771Z,10.7
2023-07-26T18:03:17.763Z,10.76
2023-07-26T18:06:17.772Z,10.74
2023-07-26T18:09:17.777Z,10.86
2023-07-26T18:12:17.775Z,10.89
2023-07-26T18:15:17.783Z,10.84
2023-07-26T18:18:17.785Z,10.88
2023-07-26T18:21:17.791Z,10.95
2023-07-26T18:24:17.806Z,10.91
2023-07-26T18:27:17.802Z,11
2023-07-26T18:30:17.808Z,11
2023-07-26T18:33:17.808Z,11.07
2023-07-26T18:36:17.807Z,11.11
2023-07-26T18:39:17.825Z,11.17
2023-07-26T18:42:17.832Z,11.2
2023-07-26T18:45:17.833Z,11.15
2023-07-26T18:48:17.831Z,11.05
2023-07-26T18:51:17.837Z,10.96
2023-07-26T18:54:17.835Z,10.93
2023-07-26T18:57:17.853Z,10.85
2023-07-26T19:00:17.856Z,10.78
2023-07-26T19:03:17.906Z,10.8
2023-07-26T19:06:17.855Z,10.78
2023-07-26T19:09:17.864Z,10.7
2023-07-26T19:12:17.906Z,10.67
2023-07-26T19:15:17.877Z,10.68
2023-07-26T19:18:17.876Z,10.74
2023-07-26T19:21:17.879Z,10.7
2023-07-26T19:24:17.960Z,10.7
2023-07-26T19:27:17.893Z,10.71
2023-07-26T19:30:17.895Z,10.66
2023-07-26T19:33:17.919Z,10.7
2023-07-26T19:36:17.908Z,10.74
2023-07-26T19:39:17.902Z,10.8
2023-07-26T19:42:17.925Z,10.8
2023-07-26T19:45:17.928Z,10.81
2023-07-26T19:48:17.930Z,10.75
2023-07-26T19:51:17.939Z,10.75
2023-07-26T19:54:17.943Z,10.67
2023-07-26T19:57:17.945Z,10.66
2023-07-26T20:00:17.956Z,10.57
2023-07-26T20:03:17.980Z,10.55
2023-07-26T20:06:17.951Z,10.47
2023-07-26T20:09:17.956Z,10.47
2023-07-26T20:12:17.959Z,10.48
2023-07-26T20:15:17.974Z,10.42
2023-07-26T20:18:17.968Z,10.38
2023-07-26T20:21:17.975Z,10.35
2023-07-26T20:24:18.033Z,10.35
2023-07-26T20:27:17.989Z,10.3
2023-07-26T20:30:17.992Z,10.29
2023-07-26T20:33:18.004Z,10.22
2023-07-26T20:36:18.001Z,10.21
2023-07-26T20:39:17.994Z,10.25
2023-07-26T20:42:18.020Z,10.25
2023-07-26T20:45:18.012Z,10.2
2023-07-26T20:48:18.021Z,10.13
2023-07-26T20:51:18.023Z,10.14
2023-07-26T20:54:18.021Z,10.14
2023-07-26T20:57:18.033Z,10.07
2023-07-26T21:00:18.037Z,10.02
2023-07-26T21:03:18.097Z,9.97
2023-07-26T21:06:18.033Z,9.98
2023-07-26T21:09:18.042Z,9.94
2023-07-26T21:12:18.070Z,9.9
2023-07-26T21:15:18.058Z,9.92
2023-07-26T21:18:18.063Z,9.87
2023-07-26T21:21:18.056Z,9.89
2023-07-26T21:24:18.143Z,9.9
2023-07-26T21:27:18.064Z,9.91
2023-07-26T21:30:18.072Z,9.93
2023-07-26T21:33:18.081Z,9.95
2023-07-26T21:36:18.094Z,10.02
2023-07-26T21:39:18.089Z,10.01
2023-07-26T21:42:18.091Z,10
2023-07-26T21:45:18.097Z,10.06
2023-07-26T21:48:18.096Z,10.04
2023-07-26T21:51:18.098Z,10.11
2023-07-26T21:54:18.132Z,10.07
2023-07-26T21:57:18.123Z,10.05
2023-07-26T22:00:18.122Z,10.03
2023-07-26T22:03:18.135Z,10.02
2023-07-26T22:06:18.126Z,10.03
2023-07-26T22:09:18.139Z,10.09
2023-07-26T22:12:18.142Z,10.14
2023-07-26T22:15:18.131Z,10.11
2023-07-26T22:18:18.153Z,10.13
2023-07-26T22:21:18.147Z,10.09
2023-07-26T22:24:18.214Z,10.06
2023-07-26T22:27:18.178Z,10.04
2023-07-26T22:30:18.169Z,10.03
2023-07-26T22:33:18.167Z,10.03
2023-07-26T22:36:18.181Z,10.02
2023-07-26T22:39:18.178Z,9.97
2023-07-26T22:42:18.195Z,10.04
2023-07-26T22:45:18.186Z,10.04
2023-07-26T22:48:18.185Z,10.03
2023-07-26T22:51:18.212Z,10.02
2023-07-26T22:54:18.214Z,10
2023-07-26T22:57:18.204Z,10.04
2023-07-26T23:00:18.202Z,9.96
2023-07-26T23:03:18.232Z,9.97
2023-07-26T23:06:18.215Z,9.98
2023-07-26T23:09:18.220Z,9.99
2023-07-26T23:12:18.211Z,9.93
2023-07-26T23:15:18.225Z,9.94
2023-07-26T23:18:18.235Z,9.97
2023-07-26T23:21:18.226Z,9.92
2023-07-26T23:24:18.253Z,9.94
2023-07-26T23:27:18.236Z,9.9
2023-07-26T23:30:18.246Z,9.9
2023-07-26T23:33:18.273Z,9.92
2023-07-26T23:36:18.254Z,9.93
2023-07-26T23:39:18.270Z,9.93
2023-07-26T23:42:18.265Z,9.95
2023-07-26T23:45:18.258Z,9.95
2023-07-26T23:48:18.626Z,9.96
2023-07-26T23:51:18.277Z,9.97
2023-07-26T23:54:18.291Z,9.97
2023-07-26T23:57:18.276Z,9.96
